createdAt,value
2022-08-17T00:00:11.024Z,10.50
2022-08-17T00:03:10.419Z,10.40
2022-08-17T00:05:40.996Z,10.40
2022-08-17T00:08:09.002Z,10.40
2022-08-17T00:10:36.718Z,10.40
2022-08-17T00:13:09.980Z,10.40
2022-08-17T00:15:37.702Z,10.30
2022-08-17T00:19:01.527Z,10.30
2022-08-17T00:20:53.092Z,10.30
2022-08-17T00:23:20.387Z,10.30
2022-08-17T00:25:48.459Z,10.20
2022-08-17T00:28:17.172Z,10.30
2022-08-17T00:30:51.325Z,10.30
2022-08-17T00:33:26.029Z,10.20
2022-08-17T00:35:54.503Z,10.30
2022-08-17T00:38:22.990Z,10.20
2022-08-17T00:40:59.019Z,10.20
2022-08-17T00:43:35.248Z,10.20
2022-08-17T00:46:07.629Z,10.20
2022-08-17T00:48:35.858Z,10.20
2022-08-17T00:51:07.629Z,10.20
2022-08-17T00:53:39.235Z,10.20
2022-08-17T00:56:11.052Z,10.10
2022-08-17T00:58:39.032Z,10.10
2022-08-17T01:01:09.263Z,10.20
2022-08-17T01:03:39.007Z,10.20
2022-08-17T01:06:08.197Z,10.20
2022-08-17T01:08:38.500Z,10.10
2022-08-17T01:11:06.209Z,10.10
2022-08-17T01:13:41.144Z,10.10
2022-08-17T01:16:16.424Z,10.10
2022-08-17T01:18:45.897Z,10.10
2022-08-17T01:21:39.269Z,10.10
2022-08-17T01:24:06.974Z,10.10
2022-08-17T01:26:36.241Z,10.10
2022-08-17T01:29:06.707Z,10.10
2022-08-17T01:31:45.750Z,10.10
2022-08-17T01:34:15.010Z,10.10
2022-08-17T01:36:45.947Z,10.10
2022-08-17T01:39:27.329Z,10.10
2022-08-17T01:42:01.625Z,10.10
2022-08-17T01:44:29.100Z,10.10
2022-08-17T01:46:56.289Z,10.10
2022-08-17T01:49:23.632Z,10.10
2022-08-17T01:51:51.019Z,10.10
2022-08-17T01:54:20.083Z,10.10
2022-08-17T01:56:50.224Z,10.10
2022-08-17T01:59:20.114Z,10.10
2022-08-17T02:01:49.025Z,10.10
2022-08-17T02:04:17.137Z,10.10
2022-08-17T02:06:52.485Z,10.10
2022-08-17T02:09:25.856Z,10.20
2022-08-17T02:11:58.610Z,10.20
2022-08-17T02:14:26.728Z,10.20
2022-08-17T02:16:54.432Z,10.20
2022-08-17T02:19:22.110Z,10.20
2022-08-17T02:21:51.458Z,10.20
2022-08-17T02:25:01.115Z,10.20
2022-08-17T02:27:13.375Z,10.20
2022-08-17T02:29:40.832Z,10.20
2022-08-17T02:32:20.884Z,10.20
2022-08-17T02:34:55.655Z,10.20
2022-08-17T02:37:22.781Z,10.20
2022-08-17T02:39:50.336Z,10.10
2022-08-17T02:42:18.080Z,10.10
2022-08-17T02:44:45.359Z,10.10
2022-08-17T02:47:13.174Z,10.00
2022-08-17T02:49:40.376Z,10.10
2022-08-17T02:52:08.346Z,10.10
2022-08-17T02:54:40.076Z,10.00
2022-08-17T02:57:10.207Z,10.00
2022-08-17T02:59:38.683Z,10.00
2022-08-17T03:02:11.669Z,10.00
2022-08-17T03:04:39.152Z,9.90
2022-08-17T03:07:06.809Z,9.90
2022-08-17T03:09:34.337Z,9.90
2022-08-17T03:12:13.051Z,9.90
2022-08-17T03:14:42.526Z,9.90
2022-08-17T03:17:11.093Z,9.80
2022-08-17T03:19:45.057Z,9.80
2022-08-17T03:22:37.320Z,9.80
2022-08-17T03:24:59.808Z,9.80
2022-08-17T03:27:27.084Z,9.80
2022-08-17T03:29:55.238Z,9.80
2022-08-17T03:32:22.416Z,9.90
2022-08-17T03:34:49.729Z,9.90
2022-08-17T03:37:17.122Z,9.90
2022-08-17T03:39:44.320Z,9.90
2022-08-17T03:42:32.224Z,9.90
2022-08-17T03:45:01.587Z,10.00
2022-08-17T03:47:47.818Z,10.00
2022-08-17T03:50:35.459Z,10.00
2022-08-17T03:53:26.709Z,10.00
2022-08-17T03:56:12.658Z,9.90
2022-08-17T03:58:40.232Z,10.00
2022-08-17T04:01:07.651Z,9.90
2022-08-17T04:03:34.917Z,9.90
2022-08-17T04:06:02.388Z,9.90
2022-08-17T04:08:30.621Z,9.90
2022-08-17T04:11:00.340Z,9.90
2022-08-17T04:13:28.264Z,9.90
2022-08-17T04:15:56.320Z,9.90
2022-08-17T04:18:23.660Z,9.80
2022-08-17T04:20:51.092Z,9.80
2022-08-17T04:23:19.354Z,9.80
2022-08-17T04:25:51.269Z,9.80
2022-08-17T04:28:20.313Z,9.80
2022-08-17T04:30:48.267Z,9.80
2022-08-17T04:33:19.463Z,9.80
2022-08-17T04:35:57.004Z,9.80
2022-08-17T04:38:26.879Z,9.80
2022-08-17T04:41:12.907Z,9.80
2022-08-17T04:43:42.275Z,9.80
2022-08-17T04:46:16.994Z,9.80
2022-08-17T04:48:47.556Z,9.90
2022-08-17T04:51:18.976Z,9.90
2022-08-17T04:53:54.335Z,10.00
2022-08-17T04:56:23.548Z,10.00
2022-08-17T04:58:53.177Z,10.10
2022-08-17T05:01:24.554Z,10.10
2022-08-17T05:03:59.209Z,10.20
2022-08-17T05:06:27.821Z,10.30
2022-08-17T05:08:55.895Z,10.40
2022-08-17T05:11:25.615Z,10.40
2022-08-17T05:13:54.490Z,10.40
2022-08-17T05:16:24.211Z,10.50
2022-08-17T05:18:51.863Z,10.50
2022-08-17T05:21:21.076Z,10.50
2022-08-17T05:23:53.895Z,10.50
2022-08-17T05:26:26.044Z,10.60
2022-08-17T05:28:57.156Z,10.50
2022-08-17T05:31:27.641Z,10.50
2022-08-17T05:33:54.901Z,10.50
2022-08-17T05:36:42.798Z,10.50
2022-08-17T05:39:09.440Z,10.50
2022-08-17T05:41:43.508Z,10.50
2022-08-17T05:44:11.251Z,10.50
2022-08-17T05:46:42.094Z,10.50
2022-08-17T05:49:09.893Z,10.50
2022-08-17T05:52:03.544Z,10.50
2022-08-17T05:54:42.799Z,10.50
2022-08-17T05:57:36.192Z,10.50
2022-08-17T06:00:20.380Z,10.60
2022-08-17T06:02:54.106Z,10.60
2022-08-17T06:05:48.873Z,10.60
2022-08-17T06:08:38.672Z,10.60
2022-08-17T06:11:37.700Z,10.60
2022-08-17T06:14:36.340Z,10.70
2022-08-17T06:17:16.152Z,10.70
2022-08-17T06:19:54.663Z,10.70
2022-08-17T06:22:26.269Z,10.80
2022-08-17T06:25:32.030Z,10.80
2022-08-17T06:28:06.069Z,10.90
2022-08-17T06:30:59.583Z,10.90
2022-08-17T06:33:35.322Z,10.80
2022-08-17T06:36:29.386Z,10.80
2022-08-17T06:38:56.899Z,10.80
2022-08-17T06:41:43.067Z,10.80
2022-08-17T06:44:43.211Z,10.80
2022-08-17T06:47:13.736Z,10.80
2022-08-17T06:49:55.404Z,10.80
2022-08-17T06:52:46.007Z,10.80
2022-08-17T06:55:38.079Z,10.80
2022-08-17T06:58:15.940Z,10.80
2022-08-17T07:00:47.326Z,10.80
2022-08-17T07:03:50.101Z,10.80
2022-08-17T07:06:29.844Z,10.80
2022-08-17T07:09:00.053Z,10.90
2022-08-17T07:11:39.874Z,10.90
2022-08-17T07:14:28.721Z,10.90
2022-08-17T07:16:58.682Z,11.00
2022-08-17T07:19:34.144Z,11.00
2022-08-17T07:22:22.919Z,11.00
2022-08-17T07:24:52.640Z,11.10
2022-08-17T07:27:21.509Z,11.20
2022-08-17T07:30:06.870Z,11.20
2022-08-17T07:32:57.906Z,11.20
2022-08-17T07:35:41.016Z,11.30
2022-08-17T07:38:25.146Z,11.30
2022-08-17T07:41:03.638Z,11.40
2022-08-17T07:43:39.982Z,11.40
2022-08-17T07:46:40.424Z,11.50
2022-08-17T07:49:10.644Z,11.60
2022-08-17T07:51:44.062Z,11.70
2022-08-17T07:54:23.173Z,11.70
2022-08-17T07:57:08.813Z,11.80
2022-08-17T07:59:38.528Z,11.80
2022-08-17T08:02:40.457Z,11.90
2022-08-17T08:05:46.643Z,11.90
2022-08-17T08:08:24.644Z,11.90
2022-08-17T08:11:03.375Z,11.90
2022-08-17T08:13:32.457Z,12.00
2022-08-17T08:16:19.994Z,12.00
2022-08-17T08:18:54.285Z,12.10
2022-08-17T08:21:52.219Z,12.10
2022-08-17T08:24:46.887Z,12.20
2022-08-17T08:27:20.338Z,12.20
2022-08-17T08:30:07.809Z,12.40
2022-08-17T08:33:01.023Z,12.50
2022-08-17T08:36:03.615Z,12.50
2022-08-17T08:39:05.989Z,12.50
2022-08-17T08:42:18.540Z,12.50
2022-08-17T08:45:04.831Z,12.50
2022-08-17T08:48:05.564Z,12.60
2022-08-17T08:50:38.029Z,12.50
2022-08-17T08:53:23.909Z,12.60
2022-08-17T08:56:05.403Z,12.60
2022-08-17T08:58:41.874Z,12.60
2022-08-17T09:01:27.970Z,12.60
2022-08-17T09:04:25.495Z,12.70
2022-08-17T09:07:21.092Z,12.80
2022-08-17T09:10:00.620Z,12.80
2022-08-17T09:12:41.717Z,12.90
2022-08-17T09:15:25.879Z,13.00
2022-08-17T09:18:14.932Z,13.10
2022-08-17T09:21:10.700Z,13.20
2022-08-17T09:23:43.005Z,13.20
2022-08-17T09:26:17.169Z,13.30
2022-08-17T09:28:53.060Z,13.30
2022-08-17T09:31:48.158Z,13.30
2022-08-17T09:34:22.376Z,13.30
2022-08-17T09:37:18.222Z,13.30
2022-08-17T09:40:16.451Z,13.40
2022-08-17T09:43:03.476Z,13.50
2022-08-17T09:45:51.584Z,13.50
2022-08-17T09:48:25.016Z,13.60
2022-08-17T09:51:45.760Z,13.70
2022-08-17T09:54:39.936Z,13.80
2022-08-17T09:57:32.758Z,14.00
2022-08-17T10:00:17.281Z,14.10
2022-08-17T10:03:08.587Z,14.10
2022-08-17T10:05:57.223Z,14.20
2022-08-17T10:08:52.479Z,14.20
2022-08-17T10:12:00.812Z,14.30
2022-08-17T10:14:53.500Z,14.30
2022-08-17T10:17:33.580Z,14.40
2022-08-17T10:20:16.166Z,14.40
2022-08-17T10:23:07.953Z,14.40
2022-08-17T10:25:58.083Z,14.50
2022-08-17T10:28:30.391Z,14.60
2022-08-17T10:31:33.192Z,14.60
2022-08-17T10:34:06.959Z,14.70
2022-08-17T10:36:54.824Z,14.80
2022-08-17T10:39:30.742Z,14.90
2022-08-17T10:42:05.137Z,14.90
2022-08-17T10:44:47.207Z,14.90
2022-08-17T10:47:19.153Z,14.90
2022-08-17T10:49:54.001Z,15.00
2022-08-17T10:52:26.110Z,15.00
2022-08-17T10:54:58.345Z,15.00
2022-08-17T10:57:27.095Z,15.10
2022-08-17T10:59:59.846Z,15.10
2022-08-17T11:02:31.946Z,15.20
2022-08-17T11:05:11.323Z,15.20
2022-08-17T11:08:17.404Z,15.40
2022-08-17T11:11:09.294Z,15.50
2022-08-17T11:13:50.292Z,15.40
2022-08-17T11:16:38.611Z,15.40
2022-08-17T11:19:38.388Z,15.50
2022-08-17T11:22:11.761Z,15.50
2022-08-17T11:24:48.121Z,15.60
2022-08-17T11:27:27.389Z,15.70
2022-08-17T11:30:21.176Z,15.80
2022-08-17T11:32:55.822Z,15.80
2022-08-17T11:35:24.479Z,15.80
2022-08-17T11:38:16.114Z,15.90
2022-08-17T11:40:56.002Z,16.00
2022-08-17T11:43:45.706Z,16.00
2022-08-17T11:46:56.702Z,16.00
2022-08-17T11:50:00.551Z,16.00
2022-08-17T11:52:49.610Z,16.00
2022-08-17T11:55:36.372Z,16.10
2022-08-17T11:58:37.524Z,16.10
2022-08-17T12:01:08.775Z,16.00
2022-08-17T12:03:37.074Z,16.00
2022-08-17T12:06:17.202Z,16.10
2022-08-17T12:09:16.258Z,16.10
2022-08-17T12:12:12.682Z,16.10
2022-08-17T12:17:41.162Z,16.10
2022-08-17T12:20:32.297Z,16.20
2022-08-17T12:23:16.480Z,16.30
2022-08-17T12:25:49.796Z,16.30
2022-08-17T12:28:39.208Z,16.30
2022-08-17T12:31:17.115Z,16.20
2022-08-17T12:33:46.324Z,16.20
2022-08-17T12:36:17.190Z,16.20
2022-08-17T12:39:13.797Z,16.10
2022-08-17T12:41:47.218Z,16.10
2022-08-17T12:44:30.338Z,16.00
2022-08-17T12:47:04.579Z,16.00
2022-08-17T12:49:41.141Z,16.00
2022-08-17T12:52:26.742Z,16.10
2022-08-17T12:55:07.456Z,16.10
2022-08-17T12:57:45.726Z,16.10
2022-08-17T13:00:17.585Z,16.20
2022-08-17T13:02:48.877Z,16.20
2022-08-17T13:05:29.000Z,16.30
2022-08-17T13:07:58.938Z,16.30
2022-08-17T13:10:32.913Z,16.30
2022-08-17T13:13:17.664Z,16.30
2022-08-17T13:15:55.429Z,16.40
2022-08-17T13:18:36.603Z,16.40
2022-08-17T13:21:04.066Z,16.50
2022-08-17T13:23:32.389Z,16.50
2022-08-17T13:26:14.759Z,16.60
2022-08-17T13:28:49.795Z,16.70
2022-08-17T13:31:39.398Z,16.70
2022-08-17T13:34:27.036Z,16.70
2022-08-17T13:37:34.109Z,16.70
2022-08-17T13:40:13.003Z,16.60
2022-08-17T13:42:51.668Z,16.40
2022-08-17T13:45:36.461Z,16.30
2022-08-17T13:48:14.666Z,16.20
2022-08-17T13:50:55.915Z,16.20
2022-08-17T13:53:46.862Z,16.20
2022-08-17T13:56:38.755Z,16.30
2022-08-17T13:59:16.638Z,16.40
2022-08-17T14:02:04.950Z,16.40
2022-08-17T14:04:33.871Z,16.40
2022-08-17T14:07:13.106Z,16.50
2022-08-17T14:09:48.039Z,16.50
2022-08-17T14:12:20.260Z,16.60
2022-08-17T14:14:49.479Z,16.70
2022-08-17T14:17:16.777Z,16.80
2022-08-17T14:19:44.264Z,16.90
2022-08-17T14:22:23.845Z,16.80
2022-08-17T14:24:51.772Z,16.90
2022-08-17T14:27:20.585Z,17.00
2022-08-17T14:29:49.106Z,17.00
2022-08-17T14:32:21.421Z,17.00
2022-08-17T14:34:49.800Z,17.00
2022-08-17T14:37:19.782Z,17.00
2022-08-17T14:39:47.373Z,17.10
2022-08-17T14:42:15.605Z,17.10
2022-08-17T14:44:42.858Z,17.20
2022-08-17T14:47:15.022Z,17.20
2022-08-17T14:49:42.469Z,17.20
2022-08-17T14:52:12.350Z,17.10
2022-08-17T14:54:43.794Z,17.10
2022-08-17T14:57:26.101Z,17.20
2022-08-17T15:00:03.502Z,17.30
2022-08-17T15:02:31.173Z,17.40
2022-08-17T15:05:00.790Z,17.40
2022-08-17T15:07:30.738Z,17.40
2022-08-17T15:10:02.483Z,17.40
2022-08-17T15:12:34.024Z,17.40
2022-08-17T15:15:06.328Z,17.30
2022-08-17T15:17:44.578Z,17.30
2022-08-17T15:20:19.091Z,17.30
2022-08-17T15:22:49.940Z,17.30
2022-08-17T15:25:19.852Z,17.30
2022-08-17T15:27:47.685Z,17.30
2022-08-17T15:30:15.863Z,17.30
2022-08-17T15:32:46.881Z,17.20
2022-08-17T15:35:27.359Z,17.20
2022-08-17T15:38:11.768Z,17.20
2022-08-17T15:40:50.873Z,17.30
2022-08-17T15:43:27.663Z,17.30
2022-08-17T15:46:12.121Z,17.40
2022-08-17T15:48:42.641Z,17.60
2022-08-17T15:51:19.871Z,17.70
2022-08-17T15:53:50.628Z,17.70
2022-08-17T15:56:18.714Z,17.70
2022-08-17T15:58:48.035Z,17.70
2022-08-17T16:03:01.054Z,17.60
2022-08-17T16:04:14.917Z,17.60
2022-08-17T16:06:54.418Z,17.50
2022-08-17T16:09:21.699Z,17.50
2022-08-17T16:11:53.678Z,17.60
2022-08-17T16:14:24.352Z,17.60
2022-08-17T16:16:52.912Z,17.50
2022-08-17T16:19:20.332Z,17.50
2022-08-17T16:21:47.518Z,17.50
2022-08-17T16:24:15.033Z,17.50
2022-08-17T16:26:42.813Z,17.60
2022-08-17T16:29:10.426Z,17.60
2022-08-17T16:31:37.919Z,17.60
2022-08-17T16:34:17.580Z,17.60
2022-08-17T16:36:53.760Z,17.60
2022-08-17T16:39:27.665Z,17.60
2022-08-17T16:41:56.161Z,17.70
2022-08-17T16:44:24.302Z,17.60
2022-08-17T16:46:51.739Z,17.60
2022-08-17T16:49:25.756Z,17.50
2022-08-17T16:52:07.099Z,17.40
2022-08-17T16:54:35.670Z,17.30
2022-08-17T16:57:05.460Z,17.30
2022-08-17T16:59:40.701Z,17.20
2022-08-17T17:02:14.702Z,17.10
2022-08-17T17:04:50.220Z,17.10
2022-08-17T17:07:35.014Z,17.00
2022-08-17T17:10:10.356Z,17.00
2022-08-17T17:13:02.397Z,17.00
2022-08-17T17:15:36.439Z,17.00
2022-08-17T17:18:06.982Z,16.90
2022-08-17T17:20:47.655Z,16.90
2022-08-17T17:23:30.074Z,16.90
2022-08-17T17:26:18.774Z,16.70
2022-08-17T17:28:46.467Z,16.70
2022-08-17T17:31:20.265Z,16.60
2022-08-17T17:33:53.134Z,16.50
2022-08-17T17:36:23.151Z,16.50
2022-08-17T17:38:54.723Z,16.50
2022-08-17T17:41:29.704Z,16.40
2022-08-17T17:44:04.990Z,16.40
2022-08-17T17:46:38.091Z,16.30
2022-08-17T17:49:11.383Z,16.20
2022-08-17T17:52:11.032Z,16.20
2022-08-17T17:54:59.540Z,16.20
2022-08-17T17:58:03.013Z,16.10
2022-08-17T18:00:44.776Z,16.10
2022-08-17T18:03:30.526Z,16.10
2022-08-17T18:06:06.972Z,16.00
2022-08-17T18:09:02.306Z,16.00
2022-08-17T18:11:51.504Z,15.90
2022-08-17T18:14:29.177Z,15.90
2022-08-17T18:16:59.899Z,15.80
2022-08-17T18:19:29.204Z,15.80
2022-08-17T18:22:02.559Z,15.70
2022-08-17T18:24:36.932Z,15.70
2022-08-17T18:27:18.936Z,15.60
2022-08-17T18:29:51.578Z,15.60
2022-08-17T18:32:40.090Z,15.50
2022-08-17T18:35:10.487Z,15.50
2022-08-17T18:37:57.570Z,15.50
2022-08-17T18:40:30.432Z,15.50
2022-08-17T18:43:14.116Z,15.50
2022-08-17T18:45:51.264Z,15.50
2022-08-17T18:48:23.302Z,15.40
2022-08-17T18:50:53.456Z,15.40
2022-08-17T18:53:26.503Z,15.40
2022-08-17T18:56:16.820Z,15.30
2022-08-17T18:58:53.576Z,15.30
2022-08-17T19:01:22.974Z,15.30
2022-08-17T19:04:27.348Z,15.30
2022-08-17T19:07:25.047Z,15.30
2022-08-17T19:10:30.008Z,15.30
2022-08-17T19:13:12.271Z,15.20
2022-08-17T19:16:11.641Z,15.20
2022-08-17T19:19:02.888Z,15.20
2022-08-17T19:21:30.563Z,15.20
2022-08-17T19:24:12.379Z,15.20
2022-08-17T19:26:53.355Z,15.10
2022-08-17T19:29:34.174Z,15.00
2022-08-17T19:32:02.466Z,15.10
2022-08-17T19:34:34.491Z,15.10
2022-08-17T19:37:26.619Z,15.00
2022-08-17T19:43:39.665Z,15.00
2022-08-17T19:46:30.431Z,14.90
2022-08-17T19:49:14.725Z,14.90
2022-08-17T19:51:53.712Z,14.80
2022-08-17T19:54:55.743Z,14.70
2022-08-17T19:57:49.535Z,14.70
2022-08-17T20:00:19.222Z,14.60
2022-08-17T20:02:55.600Z,14.60
2022-08-17T20:05:29.847Z,14.60
2022-08-17T20:08:15.538Z,14.50
2022-08-17T20:10:54.585Z,14.50
2022-08-17T20:13:39.309Z,14.40
2022-08-17T20:16:07.635Z,14.40
2022-08-17T20:18:57.916Z,14.40
2022-08-17T20:22:05.705Z,14.40
2022-08-17T20:24:52.714Z,14.40
2022-08-17T20:27:46.893Z,14.40
2022-08-17T20:30:41.383Z,14.40
2022-08-17T20:33:24.060Z,14.50
2022-08-17T20:36:22.838Z,14.50
2022-08-17T20:38:55.676Z,14.50
2022-08-17T20:41:28.715Z,14.50
2022-08-17T20:43:59.198Z,14.50
2022-08-17T20:46:36.150Z,14.50
2022-08-17T20:49:19.376Z,14.50
2022-08-17T20:52:00.642Z,14.50
2022-08-17T20:54:41.819Z,14.50
2022-08-17T20:57:14.320Z,14.50
2022-08-17T20:59:42.565Z,14.50
2022-08-17T21:02:19.762Z,14.50
2022-08-17T21:04:54.640Z,14.50
2022-08-17T21:07:42.945Z,14.50
2022-08-17T21:10:24.196Z,14.50
2022-08-17T21:13:13.921Z,14.50
2022-08-17T21:15:47.743Z,14.50
2022-08-17T21:18:44.731Z,14.40
2022-08-17T21:21:17.629Z,14.40
2022-08-17T21:23:45.206Z,14.40
2022-08-17T21:26:32.543Z,14.40
2022-08-17T21:29:32.046Z,14.30
2022-08-17T21:32:05.529Z,14.30
2022-08-17T21:34:36.467Z,14.30
2022-08-17T21:37:23.339Z,14.30
2022-08-17T21:40:00.403Z,14.30
2022-08-17T21:42:32.423Z,14.30
2022-08-17T21:45:18.214Z,14.20
2022-08-17T21:48:07.057Z,14.20
2022-08-17T21:50:35.588Z,14.20
2022-08-17T21:53:04.067Z,14.20
2022-08-17T21:55:34.248Z,14.20
2022-08-17T21:58:13.736Z,14.20
2022-08-17T22:00:44.784Z,14.20
2022-08-17T22:03:25.966Z,14.20
2022-08-17T22:05:53.557Z,14.10
2022-08-17T22:08:23.994Z,14.10
2022-08-17T22:10:59.558Z,14.10
2022-08-17T22:13:29.643Z,14.10
2022-08-17T22:16:15.329Z,14.10
2022-08-17T22:18:44.896Z,14.00
2022-08-17T22:21:12.101Z,14.00
2022-08-17T22:24:05.943Z,14.00
2022-08-17T22:27:10.404Z,13.90
2022-08-17T22:29:57.780Z,13.90
2022-08-17T22:32:46.858Z,13.80
2022-08-17T22:35:48.011Z,13.70
2022-08-17T22:38:21.616Z,13.70
2022-08-17T22:40:51.976Z,13.70
2022-08-17T22:43:26.329Z,13.60
2022-08-17T22:45:58.537Z,13.60
2022-08-17T22:48:28.069Z,13.60
2022-08-17T22:51:12.501Z,13.60
2022-08-17T22:54:09.709Z,13.60
2022-08-17T22:56:56.525Z,13.60
2022-08-17T22:59:45.994Z,13.60
2022-08-17T23:02:23.366Z,13.60
2022-08-17T23:04:54.737Z,13.70
2022-08-17T23:07:22.355Z,13.70
2022-08-17T23:09:52.460Z,13.70
2022-08-17T23:12:26.495Z,13.80
2022-08-17T23:15:00.604Z,13.80
2022-08-17T23:17:37.197Z,13.80
2022-08-17T23:20:08.593Z,13.80
2022-08-17T23:22:52.209Z,13.80
2022-08-17T23:25:30.325Z,13.80
2022-08-17T23:28:01.694Z,13.80
2022-08-17T23:30:31.699Z,13.80
2022-08-17T23:33:01.544Z,13.80
2022-08-17T23:35:40.523Z,13.80
2022-08-17T23:38:12.118Z,13.80
2022-08-17T23:40:40.682Z,13.80
2022-08-17T23:43:25.427Z,13.80
2022-08-17T23:45:57.597Z,13.80
2022-08-17T23:48:35.432Z,13.80
2022-08-17T23:51:25.938Z,13.80
2022-08-17T23:54:05.806Z,13.80
2022-08-17T23:56:41.845Z,13.80
2022-08-17T23:59:09.538Z,13.90
